createdAt,value
2023-04-04T00:01:04.155Z,5.38
2023-04-04T00:03:35.066Z,5.18
2023-04-04T00:06:08.779Z,5.10
2023-04-04T00:08:39.624Z,5.35
2023-04-04T00:11:10.492Z,4.68
2023-04-04T00:13:41.904Z,5.07
2023-04-04T00:16:13.820Z,5.30
2023-04-04T00:18:44.642Z,4.10
2023-04-04T00:21:18.353Z,4.60
2023-04-04T00:23:49.118Z,4.72
2023-04-04T00:26:20.215Z,4.60
2023-04-04T00:28:51.129Z,4.95
2023-04-04T00:31:22.042Z,4.95
2023-04-04T00:33:52.977Z,5.15
2023-04-04T00:36:26.530Z,4.57
2023-04-04T00:38:57.485Z,5.00
2023-04-04T00:41:29.286Z,4.97
2023-04-04T00:44:00.277Z,4.55
2023-04-04T00:46:31.624Z,4.53
2023-04-04T00:49:02.450Z,4.38
2023-04-04T00:51:35.961Z,4.28
2023-04-04T00:54:07.132Z,4.78
2023-04-04T00:56:41.295Z,4.35
2023-04-04T00:59:12.251Z,4.82
2023-04-04T01:01:43.163Z,4.78
2023-04-04T01:04:14.071Z,4.90
2023-04-04T01:06:47.729Z,4.45
2023-04-04T01:09:18.786Z,4.32
2023-04-04T01:11:50.216Z,4.85
2023-04-04T01:14:21.538Z,4.53
2023-04-04T01:16:53.684Z,4.47
2023-04-04T01:19:33.553Z,4.38
2023-04-04T01:22:11.900Z,4.60
2023-04-04T01:24:45.418Z,4.65
2023-04-04T01:27:19.093Z,4.82
2023-04-04T01:29:58.319Z,4.45
2023-04-04T01:32:37.028Z,4.95
2023-04-04T01:35:21.506Z,5.35
2023-04-04T01:38:01.150Z,4.70
2023-04-04T01:40:37.966Z,4.63
2023-04-04T01:43:13.264Z,4.88
2023-04-04T01:45:46.530Z,4.47
2023-04-04T01:48:19.149Z,4.53
2023-04-04T01:50:54.365Z,5.00
2023-04-04T01:53:26.111Z,5.03
2023-04-04T01:55:57.498Z,4.65
2023-04-04T01:58:33.014Z,4.40
2023-04-04T02:01:04.491Z,4.78
2023-04-04T02:03:35.361Z,5.05
2023-04-04T02:06:06.297Z,4.60
2023-04-04T02:08:38.678Z,4.65
2023-04-04T02:11:09.829Z,5.15
2023-04-04T02:13:44.668Z,5.05
2023-04-04T02:16:19.969Z,5.10
2023-04-04T02:18:50.989Z,5.13
2023-04-04T02:21:22.308Z,4.95
2023-04-04T02:23:53.496Z,5.03
2023-04-04T02:26:24.848Z,5.57
2023-04-04T02:28:58.248Z,4.60
2023-04-04T02:31:29.118Z,5.85
2023-04-04T02:34:00.113Z,4.78
2023-04-04T02:36:31.021Z,5.15
2023-04-04T02:39:02.748Z,5.15
2023-04-04T02:41:34.993Z,4.97
2023-04-04T02:44:10.153Z,5.45
2023-04-04T02:46:42.809Z,5.10
2023-04-04T02:49:18.540Z,5.35
2023-04-04T02:51:52.588Z,4.72
2023-04-04T02:54:24.021Z,5.68
2023-04-04T02:56:55.352Z,5.55
2023-04-04T02:59:29.305Z,5.28
2023-04-04T03:02:00.316Z,5.30
2023-04-04T03:04:32.590Z,5.15
2023-04-04T03:07:04.301Z,5.45
2023-04-04T03:09:35.202Z,5.50
2023-04-04T03:12:06.049Z,5.20
2023-04-04T03:14:39.629Z,5.43
2023-04-04T03:17:11.087Z,5.43
2023-04-04T03:19:42.177Z,4.93
2023-04-04T03:22:13.084Z,5.47
2023-04-04T03:24:43.909Z,5.50
2023-04-04T03:27:14.748Z,5.38
2023-04-04T03:29:48.150Z,5.05
2023-04-04T03:32:19.226Z,4.93
2023-04-04T03:34:50.044Z,5.05
2023-04-04T03:37:21.209Z,4.55
2023-04-04T03:39:52.862Z,4.72
2023-04-04T03:42:24.179Z,5.18
2023-04-04T03:44:58.344Z,4.95
2023-04-04T03:47:34.983Z,5.05
2023-04-04T03:50:05.920Z,5.13
2023-04-04T03:52:41.899Z,5.38
2023-04-04T03:55:13.367Z,5.13
2023-04-04T03:57:44.224Z,5.38
2023-04-04T04:00:20.933Z,5.10
2023-04-04T04:02:51.964Z,5.45
2023-04-04T04:05:23.432Z,5.65
2023-04-04T04:07:54.305Z,4.80
2023-04-04T04:10:25.096Z,4.93
2023-04-04T04:12:56.151Z,5.15
2023-04-04T04:15:29.664Z,5.47
2023-04-04T04:18:02.523Z,5.13
2023-04-04T04:20:33.450Z,5.32
2023-04-04T04:23:04.332Z,5.45
2023-04-04T04:25:35.261Z,5.47
2023-04-04T04:28:19.456Z,6.32
2023-04-04T04:30:54.321Z,5.38
2023-04-04T04:33:32.580Z,5.10
2023-04-04T04:36:08.836Z,5.18
2023-04-04T04:38:59.920Z,4.80
2023-04-04T04:41:33.335Z,5.60
2023-04-04T04:44:06.306Z,5.70
2023-04-04T04:46:39.898Z,5.10
2023-04-04T04:49:17.246Z,5.30
2023-04-04T04:51:49.704Z,5.45
2023-04-04T04:54:22.255Z,5.47
2023-04-04T04:56:58.408Z,4.78
2023-04-04T04:59:29.907Z,5.30
2023-04-04T05:02:03.421Z,5.05
2023-04-04T05:04:41.425Z,5.40
2023-04-04T05:07:12.575Z,5.60
2023-04-04T05:09:57.592Z,5.40
2023-04-04T05:13:28.618Z,5.18
2023-04-04T05:16:05.062Z,5.53
2023-04-04T05:18:39.411Z,5.75
2023-04-04T05:21:13.505Z,5.70
2023-04-04T05:23:45.372Z,5.60
2023-04-04T05:26:17.293Z,5.90
2023-04-04T05:28:50.612Z,6.32
2023-04-04T05:31:22.827Z,5.65
2023-04-04T05:33:58.121Z,5.88
2023-04-04T05:36:35.694Z,5.30
2023-04-04T05:39:09.300Z,5.40
2023-04-04T05:41:46.850Z,6.00
2023-04-04T05:44:20.291Z,5.53
2023-04-04T05:46:50.865Z,9.60
2023-04-04T05:49:25.229Z,5.95
2023-04-04T05:52:01.500Z,6.43
2023-04-04T05:54:33.275Z,6.40
2023-04-04T05:57:08.621Z,7.68
2023-04-04T05:59:43.627Z,23.15
2023-04-04T06:02:17.768Z,31.35
2023-04-04T06:04:56.293Z,9.18
2023-04-04T06:07:46.837Z,7.65
2023-04-04T06:10:17.156Z,7.40
2023-04-04T06:12:47.602Z,6.82
2023-04-04T06:15:18.176Z,7.68
2023-04-04T06:17:48.654Z,6.90
2023-04-04T06:20:24.288Z,7.40
2023-04-04T06:22:57.550Z,7.38
2023-04-04T06:25:29.777Z,7.28
2023-04-04T06:28:03.740Z,7.20
2023-04-04T06:30:38.341Z,7.60
2023-04-04T06:33:10.759Z,7.30
2023-04-04T06:35:48.455Z,7.57
2023-04-04T06:38:19.903Z,7.93
2023-04-04T06:40:50.545Z,8.18
2023-04-04T06:43:20.952Z,8.20
2023-04-04T06:45:52.386Z,7.03
2023-04-04T06:48:23.896Z,7.47
2023-04-04T06:50:56.816Z,8.38
2023-04-04T06:53:28.572Z,9.20
2023-04-04T06:55:58.941Z,7.72
2023-04-04T06:58:29.254Z,7.85
2023-04-04T07:01:00.082Z,6.55
2023-04-04T07:03:31.074Z,7.10
2023-04-04T07:06:06.308Z,7.10
2023-04-04T07:08:37.273Z,7.05
2023-04-04T07:11:08.347Z,7.40
2023-04-04T07:13:38.940Z,6.82
2023-04-04T07:16:09.619Z,5.97
2023-04-04T07:18:39.870Z,6.25
2023-04-04T07:21:13.670Z,5.97
2023-04-04T07:23:43.981Z,6.20
2023-04-04T07:26:14.771Z,5.60
2023-04-04T07:28:45.204Z,6.47
2023-04-04T07:31:15.405Z,5.18
2023-04-04T07:33:45.696Z,5.53
2023-04-04T07:36:18.631Z,6.00
2023-04-04T07:38:49.134Z,4.97
2023-04-04T07:41:19.459Z,4.88
2023-04-04T07:43:49.769Z,5.07
2023-04-04T07:46:20.622Z,5.22
2023-04-04T07:48:51.139Z,5.32
2023-04-04T07:51:29.597Z,5.18
2023-04-04T07:54:00.334Z,4.80
2023-04-04T07:56:30.722Z,5.55
2023-04-04T07:59:01.077Z,4.63
2023-04-04T08:01:31.528Z,4.75
2023-04-04T08:04:02.278Z,4.50
2023-04-04T08:06:37.069Z,5.25
2023-04-04T08:09:07.501Z,4.90
2023-04-04T08:11:37.906Z,4.90
2023-04-04T08:14:12.054Z,5.15
2023-04-04T08:16:42.547Z,4.05
2023-04-04T08:19:13.211Z,4.72
2023-04-04T08:21:46.510Z,4.20
2023-04-04T08:24:16.907Z,4.50
2023-04-04T08:26:51.768Z,4.80
2023-04-04T08:29:29.192Z,4.32
2023-04-04T08:31:59.821Z,4.43
2023-04-04T08:34:30.211Z,4.43
2023-04-04T08:37:03.075Z,4.53
2023-04-04T08:39:33.521Z,4.72
2023-04-04T08:42:06.449Z,4.60
2023-04-04T08:44:37.666Z,4.55
2023-04-04T08:47:10.829Z,4.28
2023-04-04T08:49:46.108Z,3.70
2023-04-04T08:52:21.861Z,4.28
2023-04-04T08:54:53.888Z,3.35
2023-04-04T08:57:24.728Z,3.35
2023-04-04T08:59:55.270Z,3.70
2023-04-04T09:02:31.068Z,3.35
2023-04-04T09:05:06.700Z,3.15
2023-04-04T09:07:40.822Z,2.88
2023-04-04T09:10:13.399Z,3.05
2023-04-04T09:12:47.740Z,3.35
2023-04-04T09:15:18.205Z,2.92
2023-04-04T09:17:49.191Z,2.63
2023-04-04T09:20:41.634Z,2.88
2023-04-04T09:23:16.180Z,3.20
2023-04-04T09:30:55.551Z,2.65
2023-04-04T09:33:27.255Z,2.88
2023-04-04T09:36:01.619Z,2.83
2023-04-04T09:38:34.671Z,2.65
2023-04-04T09:41:05.083Z,3.03
2023-04-04T09:43:36.012Z,2.90
2023-04-04T09:46:06.924Z,2.45
2023-04-04T09:48:38.116Z,2.85
2023-04-04T09:51:09.596Z,2.80
2023-04-04T09:53:42.891Z,2.83
2023-04-04T09:56:14.058Z,2.10
2023-04-04T09:58:56.630Z,2.38
2023-04-04T10:01:33.746Z,2.45
2023-04-04T10:04:06.931Z,2.08
2023-04-04T10:06:39.944Z,2.67
2023-04-04T10:09:14.112Z,2.78
2023-04-04T10:11:44.472Z,2.70
2023-04-04T10:14:14.843Z,2.75
2023-04-04T10:16:48.481Z,2.17
2023-04-04T10:19:20.155Z,2.17
2023-04-04T10:21:51.869Z,2.72
2023-04-04T10:24:25.352Z,3.03
2023-04-04T10:26:56.360Z,2.83
2023-04-04T10:29:30.419Z,2.08
2023-04-04T10:32:05.225Z,2.60
2023-04-04T10:34:41.511Z,2.58
2023-04-04T10:37:15.947Z,2.63
2023-04-04T10:39:54.934Z,3.17
2023-04-04T10:42:27.122Z,2.78
2023-04-04T10:45:01.586Z,2.58
2023-04-04T10:47:40.694Z,3.10
2023-04-04T10:50:12.758Z,2.45
2023-04-04T10:52:46.416Z,2.72
2023-04-04T10:55:19.964Z,2.25
2023-04-04T10:57:52.947Z,2.35
2023-04-04T11:00:24.489Z,2.30
2023-04-04T11:02:59.685Z,2.72
2023-04-04T11:05:37.648Z,2.63
2023-04-04T11:08:10.850Z,2.30
2023-04-04T11:10:45.952Z,2.50
2023-04-04T11:13:22.234Z,2.40
2023-04-04T11:15:59.975Z,2.83
2023-04-04T11:18:49.504Z,2.83
2023-04-04T11:21:24.280Z,2.35
2023-04-04T11:24:27.141Z,2.65
2023-04-04T11:27:01.251Z,2.63
2023-04-04T11:29:53.530Z,2.60
2023-04-04T11:32:50.153Z,2.45
2023-04-04T11:35:23.582Z,2.65
2023-04-04T11:38:04.097Z,2.90
2023-04-04T11:40:45.449Z,2.72
2023-04-04T11:43:20.485Z,2.67
2023-04-04T11:45:51.117Z,2.33
2023-04-04T11:48:23.951Z,2.70
2023-04-04T11:50:56.099Z,3.00
2023-04-04T11:53:26.509Z,2.28
2023-04-04T11:55:56.847Z,2.63
2023-04-04T11:58:30.336Z,2.55
2023-04-04T12:01:00.793Z,3.10
2023-04-04T12:03:32.678Z,2.40
2023-04-04T12:06:04.608Z,2.75
2023-04-04T12:08:35.140Z,2.28
2023-04-04T12:11:11.016Z,2.83
2023-04-04T12:13:48.830Z,2.60
2023-04-04T12:16:22.300Z,2.60
2023-04-04T12:18:53.999Z,3.10
2023-04-04T12:21:24.397Z,2.40
2023-04-04T12:23:54.766Z,2.40
2023-04-04T12:26:29.941Z,2.50
2023-04-04T12:29:03.237Z,2.83
2023-04-04T12:31:34.146Z,2.70
2023-04-04T12:34:04.967Z,3.08
2023-04-04T12:36:35.852Z,2.25
2023-04-04T12:39:09.830Z,2.60
2023-04-04T12:41:51.425Z,2.90
2023-04-04T12:44:33.873Z,2.63
2023-04-04T12:47:06.945Z,2.30
2023-04-04T12:49:42.984Z,2.67
2023-04-04T12:52:22.634Z,2.53
2023-04-04T12:55:06.829Z,3.10
2023-04-04T12:57:38.772Z,2.83
2023-04-04T13:00:14.209Z,2.60
2023-04-04T13:02:49.513Z,2.92
2023-04-04T13:05:22.282Z,2.47
2023-04-04T13:07:52.871Z,2.40
2023-04-04T13:10:23.277Z,2.78
2023-04-04T13:13:01.282Z,2.60
2023-04-04T13:15:55.681Z,2.20
2023-04-04T13:18:27.741Z,2.30
2023-04-04T13:20:58.577Z,2.42
2023-04-04T13:23:28.965Z,3.15
2023-04-04T13:25:59.996Z,2.63
2023-04-04T13:28:30.367Z,2.55
2023-04-04T13:31:05.792Z,2.20
2023-04-04T13:33:36.908Z,2.20
2023-04-04T13:36:07.966Z,2.25
2023-04-04T13:38:38.354Z,2.40
2023-04-04T13:41:08.777Z,2.65
2023-04-04T13:43:39.088Z,2.60
2023-04-04T13:46:12.098Z,1.92
2023-04-04T13:48:42.492Z,2.80
2023-04-04T13:51:12.841Z,2.17
2023-04-04T13:53:45.245Z,2.17
2023-04-04T13:56:18.722Z,2.20
2023-04-04T13:58:50.395Z,2.53
2023-04-04T14:01:24.816Z,2.33
2023-04-04T14:03:55.361Z,2.40
2023-04-04T14:06:25.772Z,1.83
2023-04-04T14:08:56.519Z,2.00
2023-04-04T14:11:31.174Z,1.95
2023-04-04T14:14:01.519Z,2.40
2023-04-04T14:16:34.524Z,2.30
2023-04-04T14:19:05.109Z,2.03
2023-04-04T14:21:35.875Z,2.50
2023-04-04T14:24:07.655Z,1.55
2023-04-04T14:26:37.929Z,2.63
2023-04-04T14:29:08.430Z,2.65
2023-04-04T14:31:41.642Z,2.00
2023-04-04T14:34:12.176Z,2.13
2023-04-04T14:36:42.516Z,2.10
2023-04-04T14:39:13.041Z,2.40
2023-04-04T14:41:43.452Z,2.42
2023-04-04T14:44:14.423Z,2.30
2023-04-04T14:46:47.459Z,2.80
2023-04-04T14:49:18.156Z,2.60
2023-04-04T14:51:48.570Z,2.50
2023-04-04T14:54:19.122Z,2.22
2023-04-04T14:56:49.868Z,2.00
2023-04-04T14:59:20.112Z,2.15
2023-04-04T15:01:53.029Z,2.55
2023-04-04T15:04:23.351Z,3.00
2023-04-04T15:06:53.728Z,2.40
2023-04-04T15:09:24.686Z,2.17
2023-04-04T15:11:54.989Z,2.40
2023-04-04T15:14:25.528Z,2.35
2023-04-04T15:16:58.647Z,2.80
2023-04-04T15:19:28.963Z,2.92
2023-04-04T15:21:59.917Z,2.60
2023-04-04T15:24:30.144Z,3.00
2023-04-04T15:27:00.461Z,2.72
2023-04-04T15:29:30.886Z,3.00
2023-04-04T15:32:03.832Z,3.10
2023-04-04T15:34:34.144Z,2.80
2023-04-04T15:37:04.847Z,3.08
2023-04-04T15:39:46.046Z,3.05
2023-04-04T15:42:22.380Z,3.40
2023-04-04T15:44:52.831Z,3.63
2023-04-04T15:47:25.769Z,2.80
2023-04-04T15:49:56.118Z,2.85
2023-04-04T15:52:26.958Z,3.03
2023-04-04T15:54:57.276Z,3.58
2023-04-04T15:57:27.530Z,3.70
2023-04-04T15:59:57.914Z,3.00
2023-04-04T16:02:32.107Z,3.53
2023-04-04T16:05:02.564Z,3.38
2023-04-04T16:07:32.851Z,3.33
2023-04-04T16:10:03.816Z,2.78
2023-04-04T16:12:34.159Z,3.85
2023-04-04T16:15:05.530Z,3.10
2023-04-04T16:17:38.510Z,3.35
2023-04-04T16:20:10.128Z,3.33
2023-04-04T16:22:40.401Z,3.08
2023-04-04T16:25:11.916Z,3.10
2023-04-04T16:27:42.237Z,3.10
2023-04-04T16:30:14.222Z,3.03
2023-04-04T16:32:47.376Z,3.03
2023-04-04T16:35:17.874Z,3.10
2023-04-04T16:37:48.210Z,3.10
2023-04-04T16:40:18.613Z,3.45
2023-04-04T16:42:48.963Z,3.03
2023-04-04T16:45:19.289Z,2.85
2023-04-04T16:47:52.207Z,3.20
2023-04-04T16:50:22.722Z,3.03
2023-04-04T16:52:53.044Z,3.13
2023-04-04T16:55:26.397Z,3.05
2023-04-04T16:57:56.798Z,3.38
2023-04-04T17:00:27.388Z,3.00
2023-04-04T17:03:00.377Z,3.08
2023-04-04T17:05:30.890Z,3.00
2023-04-04T17:08:01.314Z,3.38
2023-04-04T17:10:31.641Z,3.42
2023-04-04T17:13:02.222Z,3.10
2023-04-04T17:15:32.701Z,3.95
2023-04-04T17:18:05.796Z,3.13
2023-04-04T17:20:36.103Z,3.50
2023-04-04T17:23:06.473Z,2.65
2023-04-04T17:25:36.788Z,3.60
2023-04-04T17:28:07.794Z,2.88
2023-04-04T17:30:38.370Z,2.95
2023-04-04T17:33:11.502Z,3.22
2023-04-04T17:35:41.981Z,2.58
2023-04-04T17:38:12.475Z,2.85
2023-04-04T17:40:43.180Z,3.55
2023-04-04T17:43:13.523Z,3.17
2023-04-04T17:45:45.940Z,3.33
2023-04-04T17:48:18.949Z,3.10
2023-04-04T17:50:49.324Z,3.45
2023-04-04T17:53:19.599Z,2.90
2023-04-04T17:55:51.208Z,3.38
2023-04-04T17:58:22.210Z,3.33
2023-04-04T18:00:53.028Z,3.40
2023-04-04T18:03:26.673Z,3.25
2023-04-04T18:05:57.777Z,3.42
2023-04-04T18:08:28.176Z,5.10
2023-04-04T18:11:00.956Z,6.28
2023-04-04T18:13:31.384Z,6.57
2023-04-04T18:16:02.935Z,7.10
2023-04-04T18:18:36.073Z,6.82
2023-04-04T18:21:06.793Z,7.00
2023-04-04T18:23:37.447Z,6.28
2023-04-04T18:26:08.715Z,6.45
2023-04-04T18:28:39.040Z,7.05
2023-04-04T18:31:12.285Z,7.28
2023-04-04T18:33:45.262Z,7.60
2023-04-04T18:36:15.638Z,7.25
2023-04-04T18:38:47.115Z,6.72
2023-04-04T18:41:17.969Z,6.97
2023-04-04T18:43:49.272Z,6.22
2023-04-04T18:46:19.632Z,6.28
2023-04-04T18:48:52.526Z,6.57
2023-04-04T18:51:23.837Z,6.80
2023-04-04T18:53:54.275Z,6.28
2023-04-04T18:56:24.649Z,6.20
2023-04-04T18:58:54.926Z,6.63
2023-04-04T19:01:25.584Z,7.43
2023-04-04T19:03:58.599Z,8.02
2023-04-04T19:06:30.028Z,6.88
2023-04-04T19:09:00.989Z,6.82
2023-04-04T19:11:31.324Z,6.97
2023-04-04T19:14:01.755Z,7.32
2023-04-04T19:16:32.082Z,6.90
2023-04-04T19:19:04.971Z,7.53
2023-04-04T19:21:36.118Z,7.55
2023-04-04T19:24:07.851Z,7.45
2023-04-04T19:26:38.187Z,7.22
2023-04-04T19:29:08.774Z,7.55
2023-04-04T19:31:39.576Z,7.45
2023-04-04T19:34:15.080Z,7.32
2023-04-04T19:36:45.869Z,7.28
2023-04-04T19:39:22.931Z,7.65
2023-04-04T19:41:53.709Z,6.82
2023-04-04T19:44:25.279Z,6.68
2023-04-04T19:46:59.092Z,6.47
2023-04-04T19:49:33.886Z,7.00
2023-04-04T19:52:07.232Z,7.20
2023-04-04T19:54:43.060Z,7.35
2023-04-04T19:57:20.862Z,6.55
2023-04-04T20:00:05.241Z,6.13
2023-04-04T20:02:55.447Z,7.30
2023-04-04T20:05:55.873Z,6.82
2023-04-04T20:08:49.354Z,6.85
2023-04-04T20:11:37.114Z,6.68
2023-04-04T20:14:13.333Z,6.93
2023-04-04T20:16:44.326Z,6.75
2023-04-04T20:19:15.789Z,6.57
2023-04-04T20:21:48.644Z,7.10
2023-04-04T20:24:22.773Z,7.15
2023-04-04T20:26:55.484Z,7.18
2023-04-04T20:29:28.994Z,7.53
2023-04-04T20:32:01.499Z,7.03
2023-04-04T20:34:47.094Z,7.55
2023-04-04T20:37:20.524Z,7.25
2023-04-04T20:39:57.318Z,6.72
2023-04-04T20:42:41.801Z,6.60
2023-04-04T20:45:47.873Z,6.90
2023-04-04T20:48:48.930Z,7.97
2023-04-04T20:51:28.806Z,6.50
2023-04-04T20:54:01.782Z,6.82
2023-04-04T20:56:56.841Z,7.07
2023-04-04T20:59:40.939Z,6.97
2023-04-04T21:02:17.076Z,7.00
2023-04-04T21:04:49.934Z,6.80
2023-04-04T21:07:40.860Z,6.82
2023-04-04T21:10:27.872Z,6.10
2023-04-04T21:13:02.712Z,7.07
2023-04-04T21:15:38.862Z,6.32
2023-04-04T21:18:12.779Z,7.20
2023-04-04T21:21:08.976Z,8.77
2023-04-04T21:23:47.220Z,9.77
2023-04-04T21:26:30.568Z,7.93
2023-04-04T21:29:06.439Z,7.85
2023-04-04T21:31:43.560Z,8.73
2023-04-04T21:34:17.510Z,8.88
2023-04-04T21:36:49.475Z,8.38
2023-04-04T21:39:25.859Z,7.63
2023-04-04T21:41:58.881Z,23.83
2023-04-04T21:44:34.055Z,15.95
2023-04-04T21:47:04.837Z,12.90
2023-04-04T21:49:35.621Z,12.95
2023-04-04T21:52:06.474Z,10.40
2023-04-04T21:54:37.316Z,10.50
2023-04-04T21:57:08.081Z,9.90
2023-04-04T21:59:41.079Z,10.60
2023-04-04T22:02:11.959Z,9.65
2023-04-04T22:04:42.918Z,9.88
2023-04-04T22:07:13.730Z,9.65
2023-04-04T22:09:44.532Z,8.30
2023-04-04T22:12:16.531Z,8.00
2023-04-04T22:14:51.577Z,9.15
2023-04-04T22:17:23.943Z,9.90
2023-04-04T22:19:59.341Z,9.00
2023-04-04T22:22:31.265Z,8.25
2023-04-04T22:25:05.296Z,7.78
2023-04-04T22:27:38.270Z,8.93
2023-04-04T22:30:12.775Z,10.02
2023-04-04T22:32:44.372Z,9.27
2023-04-04T22:35:15.548Z,9.18
2023-04-04T22:37:46.396Z,8.10
2023-04-04T22:40:17.664Z,9.88
2023-04-04T22:42:48.498Z,10.65
2023-04-04T22:45:22.022Z,11.57
2023-04-04T22:47:52.893Z,10.90
2023-04-04T22:50:27.013Z,11.07
2023-04-04T22:52:58.956Z,10.70
2023-04-04T22:55:30.687Z,10.25
2023-04-04T22:58:01.516Z,10.52
2023-04-04T23:00:35.012Z,9.50
2023-04-04T23:03:06.575Z,9.82
2023-04-04T23:05:37.499Z,9.02
2023-04-04T23:08:08.700Z,9.23
2023-04-04T23:10:39.965Z,10.18
2023-04-04T23:13:11.139Z,9.65
2023-04-04T23:15:45.418Z,9.90
2023-04-04T23:18:16.428Z,9.02
2023-04-04T23:20:47.704Z,11.15
2023-04-04T23:23:18.456Z,12.15
2023-04-04T23:25:49.316Z,10.05
2023-04-04T23:28:20.110Z,10.45
2023-04-04T23:30:54.996Z,10.00
2023-04-04T23:33:25.956Z,9.25
2023-04-04T23:35:57.018Z,8.70
2023-04-04T23:38:27.919Z,9.48
2023-04-04T23:40:59.205Z,8.57
2023-04-04T23:43:29.990Z,8.35
2023-04-04T23:46:03.667Z,8.50
2023-04-04T23:48:35.216Z,7.32
2023-04-04T23:51:06.235Z,7.85
2023-04-04T23:53:37.063Z,8.10
2023-04-04T23:56:08.302Z,8.55
2023-04-04T23:58:40.936Z,8.00
